createdAt,value
2022-11-12T00:03:25.226Z,6.50
2022-11-12T00:04:51.168Z,6.53
2022-11-12T00:04:57.520Z,6.65
2022-11-12T00:05:56.319Z,6.63
2022-11-12T00:11:33.467Z,6.69
2022-11-12T00:12:14.365Z,6.76
2022-11-12T00:12:35.739Z,6.79
2022-11-12T00:15:00.680Z,6.68
2022-11-12T00:17:50.939Z,6.60
2022-11-12T00:17:54.010Z,6.65
2022-11-12T00:20:16.936Z,6.60
2022-11-12T00:20:20.460Z,6.58
2022-11-12T00:22:40.825Z,6.50
2022-11-12T00:25:38.408Z,6.51
2022-11-12T00:28:36.211Z,6.46
2022-11-12T00:28:38.667Z,6.24
2022-11-12T00:29:40.001Z,6.21
2022-11-12T00:32:46.152Z,6.25
2022-11-12T00:33:13.033Z,6.24
2022-11-12T00:35:38.550Z,6.24
2022-11-12T00:37:09.577Z,6.24
2022-11-12T00:38:34.216Z,6.03
2022-11-12T00:39:57.562Z,6.13
2022-11-12T00:41:24.361Z,6.01
2022-11-12T00:42:44.343Z,6.10
2022-11-12T00:47:30.468Z,6.02
2022-11-12T00:47:37.829Z,6.10
2022-11-12T00:49:53.989Z,6.11
2022-11-12T00:49:56.929Z,6.06
2022-11-12T00:52:16.954Z,6.08
2022-11-12T00:53:55.382Z,6.13
2022-11-12T01:03:37.279Z,6.03
2022-11-12T01:07:45.419Z,5.93
2022-11-12T01:12:22.549Z,5.74
2022-11-12T01:16:54.918Z,5.66
2022-11-12T01:16:56.927Z,5.56
2022-11-12T01:19:24.324Z,5.52
2022-11-12T01:19:26.088Z,5.60
2022-11-12T01:20:28.300Z,5.70
2022-11-12T01:21:29.013Z,5.62
2022-11-12T01:26:56.059Z,5.42
2022-11-12T01:32:12.893Z,5.40
2022-11-12T01:32:19.357Z,5.51
2022-11-12T01:39:06.352Z,5.27
2022-11-12T01:39:08.886Z,5.30
2022-11-12T01:40:09.800Z,5.42
2022-11-12T01:42:31.763Z,5.42
2022-11-12T01:42:35.067Z,5.33
2022-11-12T01:47:48.632Z,5.37
2022-11-12T01:47:52.594Z,5.45
2022-11-12T01:48:50.164Z,5.48
2022-11-12T01:49:53.358Z,5.41
2022-11-12T01:52:15.049Z,5.41
2022-11-12T01:53:42.077Z,5.47
2022-11-12T01:55:07.273Z,5.42
2022-11-12T01:59:40.276Z,5.47
2022-11-12T02:01:03.899Z,5.47
2022-11-12T02:01:05.449Z,5.48
2022-11-12T02:02:05.432Z,5.47
2022-11-12T02:03:06.354Z,5.49
2022-11-12T02:04:07.537Z,5.38
2022-11-12T02:05:05.450Z,5.35
2022-11-12T02:06:05.879Z,5.14
2022-11-12T02:07:06.414Z,5.05
2022-11-12T02:08:05.717Z,4.96
2022-11-12T02:09:05.846Z,4.77
2022-11-12T02:10:08.037Z,4.71
2022-11-12T02:12:29.406Z,4.61
2022-11-12T02:12:36.881Z,4.67
2022-11-12T02:13:36.192Z,4.57
2022-11-12T02:14:33.161Z,4.47
2022-11-12T02:15:30.975Z,4.51
2022-11-12T02:16:32.610Z,4.49
2022-11-12T02:17:31.473Z,4.35
2022-11-12T02:19:55.849Z,4.39
2022-11-12T02:19:57.382Z,4.54
2022-11-12T02:20:58.395Z,4.61
2022-11-12T02:21:57.312Z,4.71
2022-11-12T02:22:57.536Z,4.71
2022-11-12T02:23:58.457Z,4.38
2022-11-12T02:24:58.736Z,4.38
2022-11-12T02:26:02.872Z,4.17
2022-11-12T02:26:58.222Z,4.13
2022-11-12T02:27:57.845Z,4.02
2022-11-12T02:28:57.289Z,4.08
2022-11-12T02:29:57.221Z,4.20
2022-11-12T02:30:57.863Z,4.14
2022-11-12T02:31:57.339Z,3.92
2022-11-12T02:33:29.643Z,3.96
2022-11-12T02:34:29.663Z,3.77
2022-11-12T02:35:31.409Z,3.74
2022-11-12T02:36:29.661Z,3.81
2022-11-12T02:37:31.667Z,3.80
2022-11-12T02:37:57.379Z,3.72
2022-11-12T02:39:29.661Z,3.84
2022-11-12T02:39:57.303Z,3.88
2022-11-12T02:41:31.622Z,3.92
2022-11-12T02:42:29.486Z,3.86
2022-11-12T02:43:30.860Z,3.82
2022-11-12T02:43:57.121Z,3.80
2022-11-12T02:44:57.061Z,3.78
2022-11-12T02:45:57.068Z,3.88
2022-11-12T02:46:57.046Z,3.78
2022-11-12T02:47:59.106Z,3.78
2022-11-12T02:48:59.745Z,3.86
2022-11-12T02:49:57.013Z,3.93
2022-11-12T02:50:57.875Z,3.92
2022-11-12T02:51:59.463Z,3.80
2022-11-12T02:52:56.990Z,3.99
2022-11-12T02:53:56.967Z,3.96
2022-11-12T02:54:57.538Z,4.00
2022-11-12T02:55:59.100Z,3.95
2022-11-12T02:56:58.446Z,3.82
2022-11-12T02:58:01.751Z,3.99
2022-11-12T02:58:56.918Z,4.10
2022-11-12T02:59:56.918Z,4.04
2022-11-12T03:00:56.982Z,4.11
2022-11-12T03:01:57.878Z,3.92
2022-11-12T03:02:56.955Z,3.89
2022-11-12T03:05:18.923Z,4.04
2022-11-12T03:05:23.594Z,3.77
2022-11-12T03:06:20.614Z,3.75
2022-11-12T03:07:20.846Z,3.67
2022-11-12T03:08:20.694Z,3.74
2022-11-12T03:09:20.891Z,3.71
2022-11-12T03:10:25.098Z,3.75
2022-11-12T03:11:20.526Z,3.84
2022-11-12T03:12:20.452Z,3.75
2022-11-12T03:13:20.483Z,3.74
2022-11-12T03:14:20.835Z,3.80
2022-11-12T03:15:20.414Z,3.71
2022-11-12T03:16:21.196Z,3.71
2022-11-12T03:17:20.644Z,3.57
2022-11-12T03:18:25.507Z,3.68
2022-11-12T03:20:44.899Z,3.81
2022-11-12T03:22:11.223Z,3.86
2022-11-12T03:22:12.856Z,3.95
2022-11-12T03:23:12.906Z,4.07
2022-11-12T03:24:13.660Z,4.13
2022-11-12T03:25:17.261Z,4.16
2022-11-12T03:27:34.707Z,4.25
2022-11-12T03:29:03.570Z,4.26
2022-11-12T03:29:05.193Z,3.96
2022-11-12T03:30:05.068Z,3.82
2022-11-12T03:31:05.561Z,3.92
2022-11-12T03:32:05.888Z,3.80
2022-11-12T03:33:09.924Z,3.93
2022-11-12T03:34:07.644Z,4.00
2022-11-12T03:36:24.997Z,4.08
2022-11-12T03:36:26.530Z,3.77
2022-11-12T03:37:26.483Z,3.72
2022-11-12T03:38:29.436Z,3.70
2022-11-12T03:39:28.053Z,3.81
2022-11-12T03:40:26.446Z,3.98
2022-11-12T03:41:26.582Z,4.06
2022-11-12T03:42:26.413Z,4.00
2022-11-12T03:43:26.501Z,3.81
2022-11-12T03:45:47.007Z,3.93
2022-11-12T03:45:49.375Z,4.02
2022-11-12T03:46:48.513Z,4.06
2022-11-12T03:47:51.521Z,4.20
2022-11-12T03:48:48.447Z,4.29
2022-11-12T03:49:49.326Z,4.29
2022-11-12T03:50:48.462Z,4.39
2022-11-12T03:53:08.957Z,4.31
2022-11-12T03:53:10.502Z,4.34
2022-11-12T03:54:10.779Z,4.39
2022-11-12T03:55:10.576Z,4.39
2022-11-12T03:56:12.673Z,4.57
2022-11-12T03:58:32.479Z,4.51
2022-11-12T03:58:33.994Z,4.47
2022-11-12T04:00:32.982Z,4.64
2022-11-12T04:00:34.466Z,4.64
2022-11-12T04:01:35.561Z,4.65
2022-11-12T04:02:35.578Z,4.57
2022-11-12T04:03:37.666Z,4.59
2022-11-12T04:04:34.454Z,4.49
2022-11-12T04:05:34.437Z,4.46
2022-11-12T04:06:34.577Z,4.25
2022-11-12T04:07:35.278Z,4.14
2022-11-12T04:08:35.171Z,4.21
2022-11-12T04:09:34.461Z,4.28
2022-11-12T04:10:34.352Z,4.24
2022-11-12T04:11:34.347Z,4.21
2022-11-12T04:12:36.427Z,4.28
2022-11-12T04:15:02.741Z,4.13
2022-11-12T04:16:01.323Z,4.20
2022-11-12T04:17:01.362Z,4.06
2022-11-12T04:18:01.295Z,3.99
2022-11-12T04:20:22.453Z,3.99
2022-11-12T04:20:23.929Z,3.77
2022-11-12T04:21:24.263Z,3.92
2022-11-12T04:22:27.975Z,3.82
2022-11-12T04:23:28.263Z,3.71
2022-11-12T04:24:28.167Z,3.64
2022-11-12T04:25:24.272Z,3.67
2022-11-12T04:26:23.885Z,3.67
2022-11-12T04:27:24.339Z,3.62
2022-11-12T04:28:26.899Z,3.60
2022-11-12T04:29:27.080Z,3.64
2022-11-12T04:30:28.294Z,3.57
2022-11-12T04:31:26.564Z,3.70
2022-11-12T04:32:28.999Z,3.72
2022-11-12T04:33:27.612Z,3.67
2022-11-12T04:36:31.681Z,3.68
2022-11-12T04:36:37.521Z,3.74
2022-11-12T04:37:36.425Z,3.72
2022-11-12T04:38:39.052Z,3.64
2022-11-12T04:39:35.108Z,3.75
2022-11-12T04:40:34.989Z,3.72
2022-11-12T04:41:34.821Z,3.74
2022-11-12T04:42:35.932Z,3.68
2022-11-12T04:43:35.245Z,3.70
2022-11-12T04:44:33.323Z,3.78
2022-11-12T04:45:34.822Z,3.81
2022-11-12T04:46:34.905Z,3.95
2022-11-12T04:47:33.364Z,3.99
2022-11-12T04:48:33.429Z,4.11
2022-11-12T04:49:35.008Z,4.20
2022-11-12T04:50:33.333Z,4.31
2022-11-12T04:51:33.373Z,4.31
2022-11-12T04:52:34.449Z,4.32
2022-11-12T04:53:34.681Z,4.44
2022-11-12T04:54:34.885Z,4.43
2022-11-12T04:55:35.068Z,4.24
2022-11-12T04:56:34.452Z,4.18
2022-11-12T04:57:34.752Z,4.31
2022-11-12T04:58:34.830Z,4.34
2022-11-12T04:59:33.396Z,4.36
2022-11-12T05:00:33.133Z,4.46
2022-11-12T05:01:33.147Z,4.31
2022-11-12T05:02:33.073Z,4.34
2022-11-12T05:03:33.134Z,4.21
2022-11-12T05:04:33.210Z,4.18
2022-11-12T05:05:34.945Z,4.18
2022-11-12T05:06:34.236Z,4.14
2022-11-12T05:08:54.110Z,4.14
2022-11-12T05:09:02.463Z,4.29
2022-11-12T05:10:02.245Z,4.31
2022-11-12T05:11:01.138Z,4.46
2022-11-12T05:12:00.783Z,4.42
2022-11-12T05:13:00.593Z,4.35
2022-11-12T05:14:00.687Z,4.38
2022-11-12T05:15:01.233Z,4.36
2022-11-12T05:16:01.894Z,4.28
2022-11-12T05:17:02.557Z,4.39
2022-11-12T05:18:03.405Z,4.29
2022-11-12T05:19:02.328Z,4.38
2022-11-12T05:20:02.029Z,4.44
2022-11-12T05:21:02.410Z,4.38
2022-11-12T05:22:02.434Z,4.35
2022-11-12T05:23:08.087Z,4.43
2022-11-12T05:24:03.130Z,4.42
2022-11-12T05:25:01.861Z,4.36
2022-11-12T05:26:00.686Z,4.49
2022-11-12T05:27:02.452Z,4.43
2022-11-12T05:28:03.354Z,4.54
2022-11-12T05:30:20.109Z,4.62
2022-11-12T05:30:22.139Z,4.57
2022-11-12T05:31:21.730Z,4.61
2022-11-12T05:32:21.664Z,4.42
2022-11-12T05:33:21.636Z,4.39
2022-11-12T05:34:23.265Z,4.36
2022-11-12T05:35:23.991Z,4.36
2022-11-12T05:36:23.134Z,4.46
2022-11-12T05:37:23.244Z,4.44
2022-11-12T05:38:23.147Z,4.36
2022-11-12T05:39:22.042Z,4.32
2022-11-12T05:40:24.467Z,4.24
2022-11-12T05:41:23.331Z,4.14
2022-11-12T05:42:21.879Z,4.13
2022-11-12T05:43:24.776Z,4.17
2022-11-12T05:44:22.367Z,4.11
2022-11-12T05:45:22.318Z,4.00
2022-11-12T05:47:47.555Z,3.95
2022-11-12T05:47:54.679Z,3.95
2022-11-12T05:48:54.423Z,3.84
2022-11-12T05:49:56.028Z,3.95
2022-11-12T05:51:12.388Z,3.93
2022-11-12T05:51:58.759Z,3.95
2022-11-12T05:52:55.896Z,3.93
2022-11-12T05:53:54.476Z,3.90
2022-11-12T05:54:55.299Z,3.96
2022-11-12T05:55:55.763Z,4.06
2022-11-12T05:56:55.625Z,4.16
2022-11-12T05:57:56.128Z,4.24
2022-11-12T05:58:55.328Z,4.32
2022-11-12T05:59:55.692Z,4.42
2022-11-12T06:00:54.188Z,4.50
2022-11-12T06:01:56.964Z,4.51
2022-11-12T06:02:55.098Z,4.57
2022-11-12T06:03:54.487Z,4.57
2022-11-12T06:06:13.816Z,4.65
2022-11-12T06:06:15.731Z,4.64
2022-11-12T06:07:16.034Z,4.62
2022-11-12T06:08:16.937Z,4.71
2022-11-12T06:09:17.167Z,4.74
2022-11-12T06:10:20.285Z,4.68
2022-11-12T06:11:20.328Z,4.62
2022-11-12T06:12:17.035Z,4.68
2022-11-12T06:13:18.217Z,4.67
2022-11-12T06:14:16.784Z,4.68
2022-11-12T06:15:17.996Z,4.74
2022-11-12T06:16:15.481Z,4.69
2022-11-12T06:18:35.360Z,4.77
2022-11-12T06:18:37.504Z,4.80
2022-11-12T06:19:38.583Z,4.68
2022-11-12T06:20:37.089Z,4.53
2022-11-12T06:21:38.437Z,4.56
2022-11-12T06:22:39.982Z,4.57
2022-11-12T06:23:39.757Z,4.51
2022-11-12T06:24:37.480Z,4.51
2022-11-12T06:25:37.207Z,4.59
2022-11-12T06:26:37.428Z,4.65
2022-11-12T06:27:37.544Z,4.39
2022-11-12T06:28:37.078Z,4.38
2022-11-12T06:29:38.325Z,4.42
2022-11-12T06:30:37.288Z,4.59
2022-11-12T06:31:39.785Z,4.54
2022-11-12T06:34:00.917Z,4.54
2022-11-12T06:34:07.792Z,4.51
2022-11-12T06:35:07.700Z,4.57
2022-11-12T06:36:09.868Z,4.62
2022-11-12T06:37:10.377Z,4.47
2022-11-12T06:38:11.351Z,4.61
2022-11-12T06:39:07.750Z,4.50
2022-11-12T06:40:09.512Z,4.42
2022-11-12T06:41:09.149Z,4.31
2022-11-12T06:42:09.125Z,4.25
2022-11-12T06:43:08.845Z,4.17
2022-11-12T06:44:10.970Z,4.08
2022-11-12T06:45:09.803Z,3.95
2022-11-12T06:46:07.850Z,3.95
2022-11-12T06:47:08.157Z,3.96
2022-11-12T06:48:10.107Z,3.98
2022-11-12T06:49:10.856Z,4.10
2022-11-12T06:50:11.026Z,4.11
2022-11-12T06:51:07.635Z,4.06
2022-11-12T06:52:12.307Z,4.08
2022-11-12T06:53:11.427Z,4.10
2022-11-12T06:54:11.758Z,4.06
2022-11-12T06:55:08.811Z,4.18
2022-11-12T06:56:12.928Z,4.06
2022-11-12T06:57:11.519Z,4.10
2022-11-12T06:58:07.835Z,4.13
2022-11-12T06:59:11.454Z,4.16
2022-11-12T07:00:11.349Z,4.11
2022-11-12T07:01:12.063Z,4.06
2022-11-12T07:02:09.752Z,3.93
2022-11-12T07:03:10.687Z,3.98
2022-11-12T07:04:11.758Z,3.88
2022-11-12T07:06:27.401Z,4.02
2022-11-12T07:06:36.466Z,3.84
2022-11-12T07:07:35.799Z,3.96
2022-11-12T07:08:34.547Z,3.75
2022-11-12T07:09:36.436Z,3.78
2022-11-12T07:10:36.333Z,3.86
2022-11-12T07:11:39.811Z,3.77
2022-11-12T07:12:34.019Z,3.92
2022-11-12T07:13:33.847Z,3.89
2022-11-12T07:14:34.411Z,3.81
2022-11-12T07:15:34.009Z,3.98
2022-11-12T07:16:33.898Z,3.95
2022-11-12T07:17:36.643Z,3.96
2022-11-12T07:18:35.410Z,3.99
2022-11-12T07:19:34.885Z,3.93
2022-11-12T07:20:34.417Z,4.02
2022-11-12T07:21:34.341Z,4.02
2022-11-12T07:22:36.929Z,3.93
2022-11-12T07:23:37.910Z,3.93
2022-11-12T07:24:38.684Z,4.00
2022-11-12T07:25:35.829Z,4.17
2022-11-12T07:26:34.360Z,4.14
2022-11-12T07:27:38.285Z,4.17
2022-11-12T07:28:34.315Z,4.17
2022-11-12T07:29:47.612Z,4.13
2022-11-12T07:30:40.129Z,4.14
2022-11-12T07:31:37.951Z,3.98
2022-11-12T07:32:42.819Z,4.08
2022-11-12T07:33:39.580Z,4.13
2022-11-12T07:34:35.550Z,4.08
2022-11-12T07:35:35.453Z,4.17
2022-11-12T07:36:37.921Z,4.20
2022-11-12T07:37:34.072Z,4.32
2022-11-12T07:38:38.573Z,4.35
2022-11-12T07:39:37.767Z,4.42
2022-11-12T07:40:37.143Z,4.39
2022-11-12T07:41:38.072Z,4.43
2022-11-12T07:42:37.544Z,4.29
2022-11-12T07:43:37.959Z,4.36
2022-11-12T07:44:37.340Z,4.44
2022-11-12T07:45:33.989Z,4.50
2022-11-12T07:46:35.036Z,4.56
2022-11-12T07:48:07.141Z,4.64
2022-11-12T07:48:35.059Z,4.57
2022-11-12T07:49:33.674Z,4.56
2022-11-12T07:50:34.313Z,4.71
2022-11-12T07:51:33.424Z,4.80
2022-11-12T07:52:33.508Z,4.59
2022-11-12T07:53:33.405Z,4.68
2022-11-12T07:54:33.314Z,4.86
2022-11-12T07:55:33.332Z,4.87
2022-11-12T07:56:33.430Z,4.90
2022-11-12T07:57:33.283Z,4.75
2022-11-12T07:58:33.296Z,4.79
2022-11-12T07:59:33.260Z,4.88
2022-11-12T08:00:33.232Z,4.74
2022-11-12T08:01:33.440Z,4.72
2022-11-12T08:02:33.216Z,4.71
2022-11-12T08:03:33.270Z,4.53
2022-11-12T08:04:33.213Z,4.51
2022-11-12T08:05:33.169Z,4.57
2022-11-12T08:06:33.154Z,4.50
2022-11-12T08:07:33.267Z,4.56
2022-11-12T08:08:33.183Z,4.59
2022-11-12T08:09:33.448Z,4.54
2022-11-12T08:10:33.130Z,4.54
2022-11-12T08:11:33.125Z,4.65
2022-11-12T08:12:33.127Z,4.62
2022-11-12T08:13:33.102Z,4.74
2022-11-12T08:14:33.115Z,4.56
2022-11-12T08:15:33.163Z,4.65
2022-11-12T08:16:33.288Z,4.57
2022-11-12T08:17:33.238Z,4.57
2022-11-12T08:18:33.017Z,4.64
2022-11-12T08:19:33.136Z,4.74
2022-11-12T08:20:32.996Z,4.72
2022-11-12T08:21:33.011Z,4.80
2022-11-12T08:22:32.976Z,4.91
2022-11-12T08:23:32.980Z,4.97
2022-11-12T08:24:32.991Z,5.01
2022-11-12T08:25:32.978Z,5.11
2022-11-12T08:26:33.070Z,4.93
2022-11-12T08:27:32.962Z,4.74
2022-11-12T08:28:32.927Z,4.71
2022-11-12T08:29:32.903Z,4.94
2022-11-12T08:30:32.923Z,5.09
2022-11-12T08:31:32.880Z,5.17
2022-11-12T08:32:32.879Z,5.15
2022-11-12T08:33:32.868Z,5.30
2022-11-12T08:34:32.880Z,5.49
2022-11-12T08:35:32.958Z,5.38
2022-11-12T08:36:32.923Z,5.32
2022-11-12T08:37:32.837Z,5.40
2022-11-12T08:38:32.837Z,5.47
2022-11-12T08:39:32.801Z,5.62
2022-11-12T08:40:32.824Z,5.66
2022-11-12T08:41:33.564Z,5.70
2022-11-12T08:42:32.755Z,5.32
2022-11-12T08:43:32.777Z,5.20
2022-11-12T08:44:32.770Z,5.33
2022-11-12T08:45:32.715Z,5.60
2022-11-12T08:46:32.698Z,5.69
2022-11-12T08:47:32.767Z,5.63
2022-11-12T08:48:32.720Z,5.56
2022-11-12T08:49:32.703Z,5.41
2022-11-12T08:50:32.676Z,5.35
2022-11-12T08:51:32.851Z,5.15
2022-11-12T08:52:32.667Z,5.26
2022-11-12T08:53:32.640Z,5.19
2022-11-12T08:54:32.612Z,5.17
2022-11-12T08:55:32.623Z,5.14
2022-11-12T08:56:32.613Z,5.11
2022-11-12T08:57:32.671Z,5.24
2022-11-12T08:58:32.594Z,5.30
2022-11-12T08:59:32.562Z,5.17
2022-11-12T09:00:32.612Z,5.12
2022-11-12T09:01:32.725Z,5.20
2022-11-12T09:02:32.614Z,5.23
2022-11-12T09:03:32.587Z,5.20
2022-11-12T09:04:32.488Z,5.23
2022-11-12T09:05:32.530Z,5.12
2022-11-12T09:06:32.526Z,5.12
2022-11-12T09:07:49.537Z,5.06
2022-11-12T09:08:34.531Z,5.15
2022-11-12T09:09:32.484Z,5.27
2022-11-12T09:10:32.469Z,5.06
2022-11-12T09:11:32.532Z,4.99
2022-11-12T09:12:32.445Z,4.91
2022-11-12T09:13:32.456Z,4.97
2022-11-12T09:14:32.461Z,4.84
2022-11-12T09:15:39.655Z,4.79
2022-11-12T09:16:34.397Z,4.87
2022-11-12T09:17:32.385Z,4.86
2022-11-12T09:18:32.380Z,4.93
2022-11-12T09:19:32.352Z,5.12
2022-11-12T09:20:32.332Z,5.05
2022-11-12T09:21:32.319Z,5.09
2022-11-12T09:22:32.396Z,5.14
2022-11-12T09:23:32.426Z,5.19
2022-11-12T09:24:32.508Z,5.09
2022-11-12T09:25:32.280Z,4.99
2022-11-12T09:26:32.280Z,5.04
2022-11-12T09:27:32.417Z,4.94
2022-11-12T09:28:32.404Z,4.91
2022-11-12T09:29:32.300Z,4.91
2022-11-12T09:30:32.356Z,4.97
2022-11-12T09:31:32.276Z,4.97
2022-11-12T09:32:32.228Z,4.90
2022-11-12T09:33:32.210Z,4.94
2022-11-12T09:34:32.294Z,4.99
2022-11-12T09:35:32.393Z,5.15
2022-11-12T09:36:37.154Z,5.06
2022-11-12T09:37:34.190Z,5.06
2022-11-12T09:38:33.065Z,5.22
2022-11-12T09:39:32.257Z,5.44
2022-11-12T09:40:32.121Z,5.62
2022-11-12T09:41:32.129Z,5.70
2022-11-12T09:42:32.577Z,5.90
2022-11-12T09:43:32.151Z,6.05
2022-11-12T09:44:36.694Z,6.10
2022-11-12T09:45:33.069Z,6.03
2022-11-12T09:46:32.106Z,6.08
2022-11-12T09:47:32.083Z,6.06
2022-11-12T09:52:29.123Z,6.28
2022-11-12T09:53:57.581Z,6.19
2022-11-12T09:53:59.922Z,6.27
2022-11-12T10:21:46.816Z,7.23
2022-11-12T10:22:44.420Z,7.07
2022-11-12T10:24:33.314Z,7.27
2022-11-12T10:24:37.715Z,7.33
2022-11-12T10:26:59.959Z,7.11
2022-11-12T10:28:28.230Z,7.21
2022-11-12T10:32:12.502Z,6.83
2022-11-12T10:42:14.761Z,8.24
2022-11-12T10:44:22.314Z,9.00
2022-11-12T10:51:13.029Z,10.22
2022-11-12T10:59:45.722Z,10.94
2022-11-12T11:05:54.546Z,10.76
2022-11-12T11:05:59.002Z,11.08
2022-11-12T11:06:58.546Z,11.12
2022-11-12T11:14:37.870Z,10.25
2022-11-12T11:15:43.853Z,9.73
2022-11-12T11:16:41.449Z,9.41
2022-11-12T11:17:39.141Z,9.22
2022-11-12T11:18:40.806Z,9.35
2022-11-12T11:19:43.118Z,9.48
2022-11-12T11:20:45.250Z,9.44
2022-11-12T11:21:42.442Z,9.59
2022-11-12T11:22:39.794Z,9.73
2022-11-12T11:23:38.785Z,9.99
2022-11-12T11:24:38.817Z,9.75
2022-11-12T11:25:38.789Z,9.70
2022-11-12T11:26:39.837Z,9.40
2022-11-12T11:27:38.770Z,9.56
2022-11-12T11:28:38.818Z,9.45
2022-11-12T11:29:38.749Z,9.42
2022-11-12T11:30:38.757Z,9.44
2022-11-12T11:31:38.855Z,9.62
2022-11-12T11:32:38.737Z,9.44
2022-11-12T11:33:38.700Z,9.32
2022-11-12T11:34:38.666Z,9.40
2022-11-12T11:35:38.685Z,9.44
2022-11-12T11:36:38.631Z,9.65
2022-11-12T11:37:38.722Z,9.63
2022-11-12T11:38:38.711Z,9.67
2022-11-12T11:39:38.593Z,9.52
2022-11-12T11:40:38.600Z,9.37
2022-11-12T11:41:38.593Z,9.34
2022-11-12T11:42:38.629Z,9.41
2022-11-12T11:43:38.609Z,9.41
2022-11-12T11:44:38.573Z,9.53
2022-11-12T11:45:38.534Z,9.65
2022-11-12T11:46:38.528Z,9.75
2022-11-12T11:47:59.538Z,10.09
2022-11-12T11:48:40.525Z,10.29
2022-11-12T11:49:38.533Z,10.35
2022-11-12T11:50:38.486Z,10.49
2022-11-12T11:51:38.650Z,11.13
2022-11-12T11:52:38.478Z,11.88
2022-11-12T11:53:38.441Z,12.18
2022-11-12T11:54:38.426Z,12.61
2022-11-12T11:55:38.450Z,12.89
2022-11-12T11:56:38.378Z,13.36
2022-11-12T11:57:38.472Z,13.46
2022-11-12T11:58:38.386Z,12.95
2022-11-12T11:59:38.379Z,12.98
2022-11-12T12:00:38.361Z,12.66
2022-11-12T12:01:38.350Z,12.61
2022-11-12T12:02:38.318Z,12.56
2022-11-12T12:03:38.508Z,12.21
2022-11-12T12:04:38.376Z,12.22
2022-11-12T12:05:38.328Z,12.29
2022-11-12T12:06:38.365Z,12.56
2022-11-12T12:07:38.357Z,12.40
2022-11-12T12:08:38.289Z,12.44
2022-11-12T12:09:38.299Z,12.89
2022-11-12T12:11:06.450Z,13.28
2022-11-12T12:11:42.943Z,13.66
2022-11-12T12:12:38.254Z,13.87
2022-11-12T12:13:38.172Z,14.21
2022-11-12T12:14:38.151Z,13.87
2022-11-12T12:15:38.631Z,13.12
2022-11-12T12:16:38.156Z,12.81
2022-11-12T12:17:38.140Z,12.54
2022-11-12T12:18:38.118Z,12.76
2022-11-12T12:19:38.180Z,12.80
2022-11-12T12:20:38.084Z,12.85
2022-11-12T12:21:38.112Z,13.28
2022-11-12T12:22:38.126Z,13.55
2022-11-12T12:23:38.063Z,13.86
2022-11-12T12:24:38.056Z,13.21
2022-11-12T12:25:38.076Z,13.01
2022-11-12T12:26:38.043Z,12.99
2022-11-12T12:27:38.043Z,13.27
2022-11-12T12:28:38.028Z,13.38
2022-11-12T12:29:38.014Z,13.25
2022-11-12T12:30:37.993Z,13.54
2022-11-12T12:31:37.992Z,13.86
2022-11-12T12:32:37.979Z,13.99
2022-11-12T12:33:37.958Z,14.21
2022-11-12T12:34:37.932Z,14.64
2022-11-12T12:35:37.988Z,14.01
2022-11-12T12:36:37.908Z,13.96
2022-11-12T12:37:37.879Z,14.45
2022-11-12T12:38:37.891Z,14.71
2022-11-12T12:39:41.306Z,14.45
2022-11-12T12:40:39.527Z,14.20
2022-11-12T12:41:37.877Z,14.01
2022-11-12T12:42:37.945Z,13.84
2022-11-12T12:43:37.992Z,13.41
2022-11-12T12:44:37.917Z,13.48
2022-11-12T12:45:37.845Z,13.76
2022-11-12T12:46:37.829Z,14.08
2022-11-12T12:47:37.760Z,14.26
2022-11-12T12:48:38.168Z,13.93
2022-11-12T12:49:37.842Z,14.01
2022-11-12T12:50:37.784Z,14.12
2022-11-12T12:51:37.812Z,14.57
2022-11-12T12:52:37.737Z,14.05
2022-11-12T12:53:38.888Z,13.90
2022-11-12T12:54:37.776Z,14.29
2022-11-12T12:55:38.552Z,14.59
2022-11-12T12:56:37.758Z,14.74
2022-11-12T12:57:37.737Z,14.86
2022-11-12T12:58:38.009Z,15.16
2022-11-12T12:59:37.727Z,15.07
2022-11-12T13:00:37.746Z,14.85
2022-11-12T13:01:37.724Z,14.79
2022-11-12T13:02:37.663Z,14.82
2022-11-12T13:03:37.610Z,14.75
2022-11-12T13:04:37.589Z,14.86
2022-11-12T13:05:37.584Z,14.93
2022-11-12T13:06:37.719Z,15.16
2022-11-12T13:07:37.751Z,15.22
2022-11-12T13:08:37.605Z,15.31
2022-11-12T13:09:37.628Z,15.23
2022-11-12T13:10:38.349Z,15.07
2022-11-12T13:11:37.658Z,15.09
2022-11-12T13:12:37.520Z,15.01
2022-11-12T13:13:37.523Z,14.85
2022-11-12T13:14:38.480Z,14.71
2022-11-12T13:15:37.485Z,14.86
2022-11-12T13:18:27.847Z,15.01
2022-11-12T13:20:59.958Z,14.82
2022-11-12T13:21:59.343Z,14.74
2022-11-12T13:22:59.563Z,14.60
2022-11-12T13:23:59.558Z,14.52
2022-11-12T13:24:59.350Z,14.45
2022-11-12T13:25:59.271Z,14.38
2022-11-12T13:26:59.238Z,14.29
2022-11-12T13:27:59.258Z,14.24
2022-11-12T13:29:00.223Z,14.27
2022-11-12T13:29:59.267Z,13.98
2022-11-12T13:30:59.300Z,13.96
2022-11-12T13:31:59.243Z,13.84
2022-11-12T13:32:59.261Z,13.79
2022-11-12T13:33:59.198Z,13.51
2022-11-12T13:34:59.158Z,13.43
2022-11-12T13:35:59.163Z,13.28
2022-11-12T13:36:59.326Z,12.99
2022-11-12T13:37:59.203Z,12.76
2022-11-12T13:39:01.210Z,12.63
2022-11-12T13:40:00.135Z,12.34
2022-11-12T13:40:59.145Z,12.01
2022-11-12T13:41:59.373Z,11.79
2022-11-12T13:42:59.064Z,11.59
2022-11-12T13:43:59.153Z,11.38
2022-11-12T13:44:59.139Z,11.20
2022-11-12T13:45:59.048Z,11.06
2022-11-12T13:46:59.055Z,11.19
2022-11-12T13:47:59.080Z,11.24
2022-11-12T13:48:59.157Z,11.26
2022-11-12T13:49:59.035Z,11.16
2022-11-12T13:50:59.093Z,11.17
2022-11-12T13:51:58.946Z,11.08
2022-11-12T13:52:59.041Z,11.21
2022-11-12T13:53:58.974Z,11.24
2022-11-12T13:54:59.126Z,11.23
2022-11-12T13:55:59.262Z,11.42
2022-11-12T13:56:58.897Z,11.36
2022-11-12T13:57:58.913Z,11.38
2022-11-12T13:58:58.890Z,11.42
2022-11-12T13:59:58.923Z,11.39
2022-11-12T14:00:58.914Z,11.24
2022-11-12T14:01:58.974Z,11.23
2022-11-12T14:02:58.836Z,11.11
2022-11-12T14:03:58.810Z,11.13
2022-11-12T14:04:58.818Z,11.16
2022-11-12T14:05:58.817Z,11.16
2022-11-12T14:06:58.878Z,11.41
2022-11-12T14:07:58.760Z,11.35
2022-11-12T14:08:58.787Z,11.38
2022-11-12T14:09:58.795Z,11.26
2022-11-12T14:10:58.813Z,11.33
2022-11-12T14:11:59.586Z,11.33
2022-11-12T14:12:58.691Z,11.39
2022-11-12T14:13:58.725Z,11.41
2022-11-12T14:14:58.702Z,11.39
2022-11-12T14:15:58.691Z,11.39
2022-11-12T14:16:58.683Z,11.35
2022-11-12T14:17:58.663Z,11.27
2022-11-12T14:18:58.660Z,11.13
2022-11-12T14:19:58.643Z,11.21
2022-11-12T14:20:58.671Z,11.17
2022-11-12T14:21:58.668Z,11.17
2022-11-12T14:22:58.595Z,11.13
2022-11-12T14:23:58.592Z,11.09
2022-11-12T14:24:58.600Z,11.13
2022-11-12T14:25:58.663Z,11.05
2022-11-12T14:26:58.678Z,11.08
2022-11-12T14:27:58.532Z,11.06
2022-11-12T14:28:58.574Z,11.16
2022-11-12T14:29:58.528Z,10.99
2022-11-12T14:30:58.535Z,10.98
2022-11-12T14:31:58.496Z,10.93
2022-11-12T14:32:58.506Z,10.87
2022-11-12T14:33:58.572Z,10.84
2022-11-12T14:34:58.509Z,10.70
2022-11-12T14:35:58.549Z,10.57
2022-11-12T14:36:58.505Z,10.63
2022-11-12T14:37:58.465Z,10.47
2022-11-12T14:38:58.455Z,10.47
2022-11-12T14:39:58.531Z,10.46
2022-11-12T14:40:58.435Z,10.34
2022-11-12T14:41:58.431Z,10.29
2022-11-12T14:42:58.475Z,10.25
2022-11-12T14:44:12.085Z,10.25
2022-11-12T14:45:00.410Z,10.25
2022-11-12T14:45:59.090Z,10.13
2022-11-12T14:46:58.363Z,10.11
2022-11-12T14:47:58.349Z,10.09
2022-11-12T14:48:58.365Z,10.10
2022-11-12T14:49:58.373Z,10.09
2022-11-12T14:50:58.315Z,10.11
2022-11-12T14:51:58.292Z,10.14
2022-11-12T14:52:58.306Z,10.07
2022-11-12T14:53:58.273Z,10.17
2022-11-12T14:54:58.327Z,10.02
2022-11-12T14:55:58.231Z,10.06
2022-11-12T14:56:58.249Z,10.06
2022-11-12T14:57:58.248Z,10.01
2022-11-12T14:58:58.295Z,9.95
2022-11-12T14:59:58.209Z,9.98
2022-11-12T15:00:58.248Z,9.91
2022-11-12T15:03:00.333Z,9.85
2022-11-12T15:03:59.241Z,9.88
2022-11-12T15:04:58.153Z,9.83
2022-11-12T15:05:58.184Z,9.91
2022-11-12T15:06:58.142Z,9.93
2022-11-12T15:07:58.175Z,9.85
2022-11-12T15:08:58.137Z,9.83
2022-11-12T15:09:58.126Z,9.71
2022-11-12T15:10:58.108Z,9.73
2022-11-12T15:11:58.097Z,9.62
2022-11-12T15:12:58.105Z,9.71
2022-11-12T15:13:59.074Z,9.59
2022-11-12T15:14:58.139Z,9.58
2022-11-12T15:15:58.049Z,9.63
2022-11-12T15:16:58.034Z,9.62
2022-11-12T15:17:58.047Z,9.50
2022-11-12T15:19:00.426Z,9.50
2022-11-12T15:19:58.694Z,9.56
2022-11-12T15:20:59.636Z,9.50
2022-11-12T15:21:58.974Z,9.58
2022-11-12T15:22:58.026Z,9.49
2022-11-12T15:23:57.982Z,9.45
2022-11-12T15:24:57.964Z,9.48
2022-11-12T15:25:57.944Z,9.52
2022-11-12T15:26:57.939Z,9.31
2022-11-12T15:27:57.938Z,9.40
2022-11-12T15:28:57.898Z,9.34
2022-11-12T15:29:57.938Z,9.24
2022-11-12T15:30:57.980Z,9.32
2022-11-12T15:31:57.877Z,9.23
2022-11-12T15:32:57.895Z,9.31
2022-11-12T15:33:57.838Z,9.32
2022-11-12T15:34:57.939Z,9.31
2022-11-12T15:35:57.830Z,9.26
2022-11-12T15:36:57.805Z,9.20
2022-11-12T15:37:57.835Z,9.19
2022-11-12T15:38:57.795Z,9.22
2022-11-12T15:39:57.801Z,9.16